sensor_id;sensor_type;location;lat;lon;timestamp;P1;durP1;ratioP1;P2;durP2;ratioP2
75171;SDS011;63750;52.418;20.742;2023-03-01T00:00:53;64.10;;;43.30;;
75171;SDS011;63750;52.418;20.742;2023-03-01T00:03:20;60.80;;;43.20;;
75171;SDS011;63750;52.418;20.742;2023-03-01T00:05:48;62.80;;;43.60;;
75171;SDS011;63750;52.418;20.742;2023-03-01T00:08:15;60.90;;;42.80;;
75171;SDS011;63750;52.418;20.742;2023-03-01T00:10:42;60.60;;;43.40;;
75171;SDS011;63750;52.418;20.742;2023-03-01T00:13:09;65.00;;;44.70;;
75171;SDS011;63750;52.418;20.742;2023-03-01T00:15:38;60.70;;;42.40;;
75171;SDS011;63750;52.418;20.742;2023-03-01T00:18:06;59.60;;;43.00;;
75171;SDS011;63750;52.418;20.742;2023-03-01T00:20:34;60.10;;;43.50;;
75171;SDS011;63750;52.418;20.742;2023-03-01T00:23:01;60.60;;;43.40;;
75171;SDS011;63750;52.418;20.742;2023-03-01T00:25:28;58.40;;;42.60;;
75171;SDS011;63750;52.418;20.742;2023-03-01T00:27:56;59.20;;;42.50;;
75171;SDS011;63750;52.418;20.742;2023-03-01T00:30:23;59.50;;;42.30;;
75171;SDS011;63750;52.418;20.742;2023-03-01T00:32:50;59.10;;;41.90;;
75171;SDS011;63750;52.418;20.742;2023-03-01T00:35:18;59.90;;;42.20;;
75171;SDS011;63750;52.418;20.742;2023-03-01T00:37:45;58.50;;;42.30;;
75171;SDS011;63750;52.418;20.742;2023-03-01T00:40:13;60.60;;;43.00;;
75171;SDS011;63750;52.418;20.742;2023-03-01T00:42:41;60.80;;;43.10;;
75171;SDS011;63750;52.418;20.742;2023-03-01T00:45:09;56.80;;;42.50;;
75171;SDS011;63750;52.418;20.742;2023-03-01T00:47:37;55.30;;;40.80;;
75171;SDS011;63750;52.418;20.742;2023-03-01T00:50:05;57.80;;;40.60;;
75171;SDS011;63750;52.418;20.742;2023-03-01T00:52:34;62.20;;;42.40;;
75171;SDS011;63750;52.418;20.742;2023-03-01T00:55:01;59.60;;;41.30;;
75171;SDS011;63750;52.418;20.742;2023-03-01T00:57:30;60.50;;;42.60;;
75171;SDS011;63750;52.418;20.742;2023-03-01T00:59:57;58.00;;;40.90;;
75171;SDS011;63750;52.418;20.742;2023-03-01T01:02:25;56.30;;;40.80;;
75171;SDS011;63750;52.418;20.742;2023-03-01T01:04:52;67.70;;;42.20;;
75171;SDS011;63750;52.418;20.742;2023-03-01T01:07:20;54.50;;;40.60;;
75171;SDS011;63750;52.418;20.742;2023-03-01T01:09:47;56.40;;;41.40;;
75171;SDS011;63750;52.418;20.742;2023-03-01T01:12:15;60.70;;;42.00;;
75171;SDS011;63750;52.418;20.742;2023-03-01T01:14:42;60.00;;;42.90;;
75171;SDS011;63750;52.418;20.742;2023-03-01T01:17:10;55.20;;;40.40;;
75171;SDS011;63750;52.418;20.742;2023-03-01T01:19:37;55.60;;;41.00;;
75171;SDS011;63750;52.418;20.742;2023-03-01T01:22:04;61.80;;;42.10;;
75171;SDS011;63750;52.418;20.742;2023-03-01T01:24:32;59.10;;;41.50;;
75171;SDS011;63750;52.418;20.742;2023-03-01T01:26:59;57.60;;;41.80;;
75171;SDS011;63750;52.418;20.742;2023-03-01T01:29:26;56.50;;;41.40;;
75171;SDS011;63750;52.418;20.742;2023-03-01T01:31:54;56.20;;;41.30;;
75171;SDS011;63750;52.418;20.742;2023-03-01T01:34:22;59.00;;;41.00;;
75171;SDS011;63750;52.418;20.742;2023-03-01T01:36:49;57.40;;;39.40;;
75171;SDS011;63750;52.418;20.742;2023-03-01T01:39:18;56.70;;;41.40;;
75171;SDS011;63750;52.418;20.742;2023-03-01T01:41:45;61.40;;;43.40;;
75171;SDS011;63750;52.418;20.742;2023-03-01T01:44:15;55.60;;;40.10;;
75171;SDS011;63750;52.418;20.742;2023-03-01T01:46:45;58.40;;;41.90;;
75171;SDS011;63750;52.418;20.742;2023-03-01T01:49:17;55.90;;;41.30;;
75171;SDS011;63750;52.418;20.742;2023-03-01T01:51:51;55.90;;;41.30;;
75171;SDS011;63750;52.418;20.742;2023-03-01T01:54:27;51.90;;;39.20;;
75171;SDS011;63750;52.418;20.742;2023-03-01T01:56:58;57.20;;;40.40;;
75171;SDS011;63750;52.418;20.742;2023-03-01T01:59:29;50.00;;;38.60;;
75171;SDS011;63750;52.418;20.742;2023-03-01T02:01:58;60.00;;;42.50;;
75171;SDS011;63750;52.418;20.742;2023-03-01T02:04:28;56.30;;;41.50;;
75171;SDS011;63750;52.418;20.742;2023-03-01T02:06:58;57.50;;;41.10;;
75171;SDS011;63750;52.418;20.742;2023-03-01T02:09:29;57.10;;;40.90;;
75171;SDS011;63750;52.418;20.742;2023-03-01T02:11:58;56.00;;;40.20;;
75171;SDS011;63750;52.418;20.742;2023-03-01T02:14:26;54.40;;;40.70;;
75171;SDS011;63750;52.418;20.742;2023-03-01T02:16:53;55.60;;;41.40;;
75171;SDS011;63750;52.418;20.742;2023-03-01T02:19:25;55.90;;;42.00;;
75171;SDS011;63750;52.418;20.742;2023-03-01T02:22:08;56.00;;;40.60;;
75171;SDS011;63750;52.418;20.742;2023-03-01T02:24:47;57.80;;;41.80;;
75171;SDS011;63750;52.418;20.742;2023-03-01T02:27:27;57.50;;;42.60;;
75171;SDS011;63750;52.418;20.742;2023-03-01T02:29:59;57.80;;;41.70;;
75171;SDS011;63750;52.418;20.742;2023-03-01T02:32:27;56.20;;;43.30;;
75171;SDS011;63750;52.418;20.742;2023-03-01T02:34:55;57.50;;;41.80;;
75171;SDS011;63750;52.418;20.742;2023-03-01T02:37:23;59.00;;;42.50;;
75171;SDS011;63750;52.418;20.742;2023-03-01T02:39:53;57.00;;;41.40;;
75171;SDS011;63750;52.418;20.742;2023-03-01T02:42:27;54.90;;;40.00;;
75171;SDS011;63750;52.418;20.742;2023-03-01T02:44:57;56.70;;;40.10;;
75171;SDS011;63750;52.418;20.742;2023-03-01T02:47:25;58.00;;;40.90;;
75171;SDS011;63750;52.418;20.742;2023-03-01T02:49:52;55.70;;;40.60;;
75171;SDS011;63750;52.418;20.742;2023-03-01T02:52:26;57.30;;;41.00;;
75171;SDS011;63750;52.418;20.742;2023-03-01T02:55:03;56.70;;;40.30;;
75171;SDS011;63750;52.418;20.742;2023-03-01T02:57:35;55.90;;;40.80;;
75171;SDS011;63750;52.418;20.742;2023-03-01T03:00:07;58.80;;;40.60;;
75171;SDS011;63750;52.418;20.742;2023-03-01T03:02:37;53.00;;;39.20;;
75171;SDS011;63750;52.418;20.742;2023-03-01T03:05:07;55.30;;;40.10;;
75171;SDS011;63750;52.418;20.742;2023-03-01T03:07:37;55.00;;;39.50;;
75171;SDS011;63750;52.418;20.742;2023-03-01T03:10:07;51.00;;;38.20;;
75171;SDS011;63750;52.418;20.742;2023-03-01T03:12:38;53.00;;;38.80;;
75171;SDS011;63750;52.418;20.742;2023-03-01T03:15:07;51.50;;;38.20;;
75171;SDS011;63750;52.418;20.742;2023-03-01T03:17:37;56.50;;;39.50;;
75171;SDS011;63750;52.418;20.742;2023-03-01T03:20:06;54.70;;;38.80;;
75171;SDS011;63750;52.418;20.742;2023-03-01T03:22:37;54.40;;;39.30;;
75171;SDS011;63750;52.418;20.742;2023-03-01T03:25:05;57.40;;;40.80;;
75171;SDS011;63750;52.418;20.742;2023-03-01T03:27:34;63.80;;;44.00;;
75171;SDS011;63750;52.418;20.742;2023-03-01T03:30:01;62.30;;;44.50;;
75171;SDS011;63750;52.418;20.742;2023-03-01T03:32:29;56.70;;;41.10;;
75171;SDS011;63750;52.418;20.742;2023-03-01T03:34:57;53.80;;;41.30;;
75171;SDS011;63750;52.418;20.742;2023-03-01T03:37:24;52.00;;;38.20;;
75171;SDS011;63750;52.418;20.742;2023-03-01T03:39:51;53.40;;;39.20;;
75171;SDS011;63750;52.418;20.742;2023-03-01T03:42:19;54.40;;;38.80;;
75171;SDS011;63750;52.418;20.742;2023-03-01T03:44:46;53.30;;;38.50;;
75171;SDS011;63750;52.418;20.742;2023-03-01T03:47:13;54.60;;;39.60;;
75171;SDS011;63750;52.418;20.742;2023-03-01T03:49:41;54.60;;;39.10;;
75171;SDS011;63750;52.418;20.742;2023-03-01T03:52:08;56.90;;;41.60;;
75171;SDS011;63750;52.418;20.742;2023-03-01T03:54:35;59.20;;;41.50;;
75171;SDS011;63750;52.418;20.742;2023-03-01T03:57:03;57.10;;;42.90;;
75171;SDS011;63750;52.418;20.742;2023-03-01T03:59:30;58.80;;;43.10;;
75171;SDS011;63750;52.418;20.742;2023-03-01T04:01:58;60.70;;;45.10;;
75171;SDS011;63750;52.418;20.742;2023-03-01T04:04:25;57.80;;;43.40;;
75171;SDS011;63750;52.418;20.742;2023-03-01T04:06:52;57.60;;;41.10;;
75171;SDS011;63750;52.418;20.742;2023-03-01T04:09:20;58.90;;;41.70;;
75171;SDS011;63750;52.418;20.742;2023-03-01T04:11:47;56.70;;;41.40;;
75171;SDS011;63750;52.418;20.742;2023-03-01T04:14:15;55.10;;;41.10;;
75171;SDS011;63750;52.418;20.742;2023-03-01T04:16:42;53.80;;;39.40;;
75171;SDS011;63750;52.418;20.742;2023-03-01T04:19:09;58.00;;;40.00;;
75171;SDS011;63750;52.418;20.742;2023-03-01T04:21:37;54.70;;;39.70;;
75171;SDS011;63750;52.418;20.742;2023-03-01T04:24:05;60.40;;;42.90;;
75171;SDS011;63750;52.418;20.742;2023-03-01T04:26:33;52.70;;;39.70;;
75171;SDS011;63750;52.418;20.742;2023-03-01T04:29:00;54.50;;;40.40;;
75171;SDS011;63750;52.418;20.742;2023-03-01T04:31:27;57.00;;;40.00;;
75171;SDS011;63750;52.418;20.742;2023-03-01T04:33:55;53.00;;;39.10;;
75171;SDS011;63750;52.418;20.742;2023-03-01T04:36:23;52.60;;;39.20;;
75171;SDS011;63750;52.418;20.742;2023-03-01T04:38:52;52.90;;;37.30;;
75171;SDS011;63750;52.418;20.742;2023-03-01T04:41:20;51.00;;;37.50;;
75171;SDS011;63750;52.418;20.742;2023-03-01T04:43:49;50.10;;;38.40;;
75171;SDS011;63750;52.418;20.742;2023-03-01T04:46:17;51.40;;;38.00;;
75171;SDS011;63750;52.418;20.742;2023-03-01T04:48:46;51.00;;;36.90;;
75171;SDS011;63750;52.418;20.742;2023-03-01T04:51:13;52.90;;;36.90;;
75171;SDS011;63750;52.418;20.742;2023-03-01T04:53:41;53.00;;;36.40;;
75171;SDS011;63750;52.418;20.742;2023-03-01T04:56:09;50.70;;;36.90;;
75171;SDS011;63750;52.418;20.742;2023-03-01T04:58:37;51.50;;;36.10;;
75171;SDS011;63750;52.418;20.742;2023-03-01T05:01:08;51.60;;;36.80;;
75171;SDS011;63750;52.418;20.742;2023-03-01T05:03:36;48.90;;;35.10;;
75171;SDS011;63750;52.418;20.742;2023-03-01T05:06:04;48.60;;;35.60;;
75171;SDS011;63750;52.418;20.742;2023-03-01T05:08:32;53.50;;;37.20;;
75171;SDS011;63750;52.418;20.742;2023-03-01T05:10:59;51.40;;;37.60;;
75171;SDS011;63750;52.418;20.742;2023-03-01T05:13:26;53.20;;;36.10;;
75171;SDS011;63750;52.418;20.742;2023-03-01T05:15:54;48.10;;;36.20;;
75171;SDS011;63750;52.418;20.742;2023-03-01T05:18:23;48.40;;;37.00;;
75171;SDS011;63750;52.418;20.742;2023-03-01T05:20:52;49.10;;;35.60;;
75171;SDS011;63750;52.418;20.742;2023-03-01T05:23:19;52.00;;;35.50;;
75171;SDS011;63750;52.418;20.742;2023-03-01T05:25:47;48.20;;;35.10;;
75171;SDS011;63750;52.418;20.742;2023-03-01T05:28:14;54.50;;;37.00;;
75171;SDS011;63750;52.418;20.742;2023-03-01T05:30:42;53.10;;;36.70;;
75171;SDS011;63750;52.418;20.742;2023-03-01T05:33:09;50.80;;;36.00;;
75171;SDS011;63750;52.418;20.742;2023-03-01T05:35:37;48.90;;;36.60;;
75171;SDS011;63750;52.418;20.742;2023-03-01T05:38:05;49.00;;;36.30;;
75171;SDS011;63750;52.418;20.742;2023-03-01T05:40:32;48.80;;;36.60;;
75171;SDS011;63750;52.418;20.742;2023-03-01T05:43:00;49.20;;;36.80;;
75171;SDS011;63750;52.418;20.742;2023-03-01T05:45:28;53.50;;;40.30;;
75171;SDS011;63750;52.418;20.742;2023-03-01T05:47:55;52.40;;;37.70;;
75171;SDS011;63750;52.418;20.742;2023-03-01T05:50:24;50.30;;;36.10;;
75171;SDS011;63750;52.418;20.742;2023-03-01T05:52:56;50.70;;;37.30;;
75171;SDS011;63750;52.418;20.742;2023-03-01T05:55:25;48.70;;;37.00;;
75171;SDS011;63750;52.418;20.742;2023-03-01T05:57:54;52.20;;;38.10;;
75171;SDS011;63750;52.418;20.742;2023-03-01T06:00:23;51.10;;;37.10;;
75171;SDS011;63750;52.418;20.742;2023-03-01T06:02:52;47.40;;;35.90;;
75171;SDS011;63750;52.418;20.742;2023-03-01T06:05:20;50.00;;;37.40;;
75171;SDS011;63750;52.418;20.742;2023-03-01T06:07:48;49.40;;;35.60;;
75171;SDS011;63750;52.418;20.742;2023-03-01T06:10:16;48.60;;;35.10;;
75171;SDS011;63750;52.418;20.742;2023-03-01T06:12:44;48.70;;;36.90;;
75171;SDS011;63750;52.418;20.742;2023-03-01T06:15:12;53.00;;;35.60;;
75171;SDS011;63750;52.418;20.742;2023-03-01T06:17:43;50.90;;;36.50;;
75171;SDS011;63750;52.418;20.742;2023-03-01T06:20:13;51.80;;;36.70;;
75171;SDS011;63750;52.418;20.742;2023-03-01T06:22:42;51.30;;;36.30;;
75171;SDS011;63750;52.418;20.742;2023-03-01T06:25:10;51.50;;;37.00;;
75171;SDS011;63750;52.418;20.742;2023-03-01T06:27:38;50.00;;;36.70;;
75171;SDS011;63750;52.418;20.742;2023-03-01T06:30:07;47.50;;;35.10;;
75171;SDS011;63750;52.418;20.742;2023-03-01T06:32:37;50.10;;;36.20;;
75171;SDS011;63750;52.418;20.742;2023-03-01T06:35:05;52.30;;;36.90;;
75171;SDS011;63750;52.418;20.742;2023-03-01T06:37:34;53.20;;;37.10;;
75171;SDS011;63750;52.418;20.742;2023-03-01T06:40:01;49.80;;;36.10;;
75171;SDS011;63750;52.418;20.742;2023-03-01T06:42:28;56.30;;;37.50;;
75171;SDS011;63750;52.418;20.742;2023-03-01T06:44:56;50.80;;;37.10;;
75171;SDS011;63750;52.418;20.742;2023-03-01T06:47:23;53.10;;;37.90;;
75171;SDS011;63750;52.418;20.742;2023-03-01T06:49:51;52.80;;;36.80;;
75171;SDS011;63750;52.418;20.742;2023-03-01T06:52:18;51.70;;;37.00;;
75171;SDS011;63750;52.418;20.742;2023-03-01T06:54:45;48.30;;;34.80;;
75171;SDS011;63750;52.418;20.742;2023-03-01T06:57:13;51.30;;;37.70;;
75171;SDS011;63750;52.418;20.742;2023-03-01T06:59:40;50.00;;;36.90;;
75171;SDS011;63750;52.418;20.742;2023-03-01T07:02:09;52.30;;;37.20;;
75171;SDS011;63750;52.418;20.742;2023-03-01T07:04:37;53.80;;;37.50;;
75171;SDS011;63750;52.418;20.742;2023-03-01T07:07:05;52.40;;;38.10;;
75171;SDS011;63750;52.418;20.742;2023-03-01T07:09:32;50.50;;;37.90;;
75171;SDS011;63750;52.418;20.742;2023-03-01T07:12:00;58.60;;;40.00;;
75171;SDS011;63750;52.418;20.742;2023-03-01T07:14:28;49.30;;;36.20;;
75171;SDS011;63750;52.418;20.742;2023-03-01T07:16:55;49.90;;;37.90;;
75171;SDS011;63750;52.418;20.742;2023-03-01T07:19:23;52.50;;;39.10;;
75171;SDS011;63750;52.418;20.742;2023-03-01T07:21:51;56.00;;;38.70;;
75171;SDS011;63750;52.418;20.742;2023-03-01T07:24:18;55.50;;;37.60;;
75171;SDS011;63750;52.418;20.742;2023-03-01T07:26:48;55.50;;;39.50;;
75171;SDS011;63750;52.418;20.742;2023-03-01T07:29:16;59.80;;;39.80;;
75171;SDS011;63750;52.418;20.742;2023-03-01T07:31:44;56.30;;;39.10;;
75171;SDS011;63750;52.418;20.742;2023-03-01T07:34:12;55.50;;;40.80;;
75171;SDS011;63750;52.418;20.742;2023-03-01T07:36:39;55.40;;;40.00;;
75171;SDS011;63750;52.418;20.742;2023-03-01T07:39:06;52.60;;;39.30;;
75171;SDS011;63750;52.418;20.742;2023-03-01T07:41:34;51.10;;;38.80;;
75171;SDS011;63750;52.418;20.742;2023-03-01T07:44:01;51.50;;;39.50;;
75171;SDS011;63750;52.418;20.742;2023-03-01T07:46:28;52.80;;;38.80;;
75171;SDS011;63750;52.418;20.742;2023-03-01T07:48:56;52.30;;;39.60;;
75171;SDS011;63750;52.418;20.742;2023-03-01T07:51:23;52.90;;;39.30;;
75171;SDS011;63750;52.418;20.742;2023-03-01T07:53:51;58.30;;;42.60;;
75171;SDS011;63750;52.418;20.742;2023-03-01T07:56:18;64.90;;;44.70;;
75171;SDS011;63750;52.418;20.742;2023-03-01T07:58:45;65.70;;;43.50;;
75171;SDS011;63750;52.418;20.742;2023-03-01T08:01:13;53.10;;;40.00;;
75171;SDS011;63750;52.418;20.742;2023-03-01T08:03:43;58.40;;;42.60;;
75171;SDS011;63750;52.418;20.742;2023-03-01T08:06:11;57.60;;;42.90;;
75171;SDS011;63750;52.418;20.742;2023-03-01T08:08:40;56.10;;;42.50;;
75171;SDS011;63750;52.418;20.742;2023-03-01T08:11:08;58.90;;;43.20;;
75171;SDS011;63750;52.418;20.742;2023-03-01T08:13:38;59.90;;;41.00;;
75171;SDS011;63750;52.418;20.742;2023-03-01T08:16:07;55.30;;;39.90;;
75171;SDS011;63750;52.418;20.742;2023-03-01T08:18:37;56.30;;;38.20;;
75171;SDS011;63750;52.418;20.742;2023-03-01T08:21:05;47.70;;;37.60;;
75171;SDS011;63750;52.418;20.742;2023-03-01T08:23:33;48.10;;;36.50;;
75171;SDS011;63750;52.418;20.742;2023-03-01T08:26:05;57.90;;;39.00;;
75171;SDS011;63750;52.418;20.742;2023-03-01T08:28:34;46.30;;;36.20;;
75171;SDS011;63750;52.418;20.742;2023-03-01T08:31:01;50.40;;;37.30;;
75171;SDS011;63750;52.418;20.742;2023-03-01T08:33:29;51.50;;;37.30;;
75171;SDS011;63750;52.418;20.742;2023-03-01T08:36:04;48.50;;;37.00;;
75171;SDS011;63750;52.418;20.742;2023-03-01T08:38:32;46.80;;;34.70;;
75171;SDS011;63750;52.418;20.742;2023-03-01T08:41:00;50.50;;;36.40;;
75171;SDS011;63750;52.418;20.742;2023-03-01T08:43:28;49.30;;;35.40;;
75171;SDS011;63750;52.418;20.742;2023-03-01T08:45:55;44.50;;;33.50;;
75171;SDS011;63750;52.418;20.742;2023-03-01T08:48:23;47.00;;;33.90;;
75171;SDS011;63750;52.418;20.742;2023-03-01T08:50:51;48.10;;;33.80;;
75171;SDS011;63750;52.418;20.742;2023-03-01T08:53:18;41.90;;;32.90;;
75171;SDS011;63750;52.418;20.742;2023-03-01T08:55:46;42.60;;;32.70;;
75171;SDS011;63750;52.418;20.742;2023-03-01T08:58:13;43.40;;;33.00;;
75171;SDS011;63750;52.418;20.742;2023-03-01T09:00:41;46.20;;;32.40;;
75171;SDS011;63750;52.418;20.742;2023-03-01T09:03:08;41.60;;;32.00;;
75171;SDS011;63750;52.418;20.742;2023-03-01T09:05:36;42.00;;;31.00;;
75171;SDS011;63750;52.418;20.742;2023-03-01T09:08:03;39.60;;;29.80;;
75171;SDS011;63750;52.418;20.742;2023-03-01T09:10:31;40.10;;;31.70;;
75171;SDS011;63750;52.418;20.742;2023-03-01T09:12:58;41.70;;;31.90;;
75171;SDS011;63750;52.418;20.742;2023-03-01T09:15:26;42.50;;;30.90;;
75171;SDS011;63750;52.418;20.742;2023-03-01T09:17:53;41.60;;;30.90;;
75171;SDS011;63750;52.418;20.742;2023-03-01T09:20:20;39.70;;;31.50;;
75171;SDS011;63750;52.418;20.742;2023-03-01T09:22:48;41.70;;;31.40;;
75171;SDS011;63750;52.418;20.742;2023-03-01T09:25:15;43.60;;;32.00;;
75171;SDS011;63750;52.418;20.742;2023-03-01T09:27:43;37.60;;;30.60;;
75171;SDS011;63750;52.418;20.742;2023-03-01T09:30:11;44.00;;;32.10;;
75171;SDS011;63750;52.418;20.742;2023-03-01T09:32:39;39.20;;;30.30;;
75171;SDS011;63750;52.418;20.742;2023-03-01T09:35:07;40.10;;;31.40;;
75171;SDS011;63750;52.418;20.742;2023-03-01T09:37:35;37.90;;;30.90;;
75171;SDS011;63750;52.418;20.742;2023-03-01T09:40:04;40.80;;;30.70;;
75171;SDS011;63750;52.418;20.742;2023-03-01T09:42:44;37.20;;;30.10;;
75171;SDS011;63750;52.418;20.742;2023-03-01T09:45:21;42.80;;;30.20;;
75171;SDS011;63750;52.418;20.742;2023-03-01T09:47:56;36.60;;;27.50;;
75171;SDS011;63750;52.418;20.742;2023-03-01T09:50:24;32.10;;;25.60;;
75171;SDS011;63750;52.418;20.742;2023-03-01T09:52:58;37.90;;;30.70;;
75171;SDS011;63750;52.418;20.742;2023-03-01T09:55:30;37.00;;;28.80;;
75171;SDS011;63750;52.418;20.742;2023-03-01T09:58:00;38.80;;;29.00;;
75171;SDS011;63750;52.418;20.742;2023-03-01T10:00:43;34.50;;;27.40;;
75171;SDS011;63750;52.418;20.742;2023-03-01T10:03:15;30.10;;;26.80;;
75171;SDS011;63750;52.418;20.742;2023-03-01T10:05:52;32.80;;;26.00;;
75171;SDS011;63750;52.418;20.742;2023-03-01T10:08:31;32.00;;;24.70;;
75171;SDS011;63750;52.418;20.742;2023-03-01T10:11:03;37.40;;;29.70;;
75171;SDS011;63750;52.418;20.742;2023-03-01T10:13:33;33.70;;;28.10;;
75171;SDS011;63750;52.418;20.742;2023-03-01T10:16:10;33.90;;;28.40;;
75171;SDS011;63750;52.418;20.742;2023-03-01T10:18:41;33.10;;;25.90;;
75171;SDS011;63750;52.418;20.742;2023-03-01T10:21:14;34.70;;;27.30;;
75171;SDS011;63750;52.418;20.742;2023-03-01T10:23:43;35.30;;;27.70;;
75171;SDS011;63750;52.418;20.742;2023-03-01T10:29:14;34.90;;;28.00;;
75171;SDS011;63750;52.418;20.742;2023-03-01T10:31:43;37.20;;;28.60;;
75171;SDS011;63750;52.418;20.742;2023-03-01T10:34:13;36.80;;;29.50;;
75171;SDS011;63750;52.418;20.742;2023-03-01T10:36:42;35.10;;;27.20;;
75171;SDS011;63750;52.418;20.742;2023-03-01T10:39:15;36.90;;;27.80;;
75171;SDS011;63750;52.418;20.742;2023-03-01T10:41:55;30.80;;;24.10;;
75171;SDS011;63750;52.418;20.742;2023-03-01T10:44:36;31.50;;;26.20;;
75171;SDS011;63750;52.418;20.742;2023-03-01T10:47:17;32.40;;;26.00;;
75171;SDS011;63750;52.418;20.742;2023-03-01T10:49:56;32.20;;;24.30;;
75171;SDS011;63750;52.418;20.742;2023-03-01T10:52:26;31.20;;;25.70;;
75171;SDS011;63750;52.418;20.742;2023-03-01T10:54:56;31.80;;;26.00;;
75171;SDS011;63750;52.418;20.742;2023-03-01T10:57:31;31.70;;;25.60;;
75171;SDS011;63750;52.418;20.742;2023-03-01T11:00:10;29.10;;;24.10;;
75171;SDS011;63750;52.418;20.742;2023-03-01T11:02:45;30.00;;;24.50;;
75171;SDS011;63750;52.418;20.742;2023-03-01T11:05:20;30.40;;;24.50;;
75171;SDS011;63750;52.418;20.742;2023-03-01T11:07:50;35.80;;;27.90;;
75171;SDS011;63750;52.418;20.742;2023-03-01T11:10:20;31.80;;;26.40;;
75171;SDS011;63750;52.418;20.742;2023-03-01T11:12:50;33.00;;;27.50;;
75171;SDS011;63750;52.418;20.742;2023-03-01T11:15:24;28.90;;;24.30;;
75171;SDS011;63750;52.418;20.742;2023-03-01T11:17:53;29.00;;;24.80;;
75171;SDS011;63750;52.418;20.742;2023-03-01T11:20:25;33.20;;;25.20;;
75171;SDS011;63750;52.418;20.742;2023-03-01T11:22:56;31.80;;;25.80;;
75171;SDS011;63750;52.418;20.742;2023-03-01T11:25:27;31.80;;;25.90;;
75171;SDS011;63750;52.418;20.742;2023-03-01T11:27:59;31.50;;;26.30;;
75171;SDS011;63750;52.418;20.742;2023-03-01T11:30:30;32.60;;;27.40;;
75171;SDS011;63750;52.418;20.742;2023-03-01T11:33:05;33.00;;;27.50;;
75171;SDS011;63750;52.418;20.742;2023-03-01T11:35:44;30.80;;;24.90;;
75171;SDS011;63750;52.418;20.742;2023-03-01T11:38:18;32.40;;;27.60;;
75171;SDS011;63750;52.418;20.742;2023-03-01T11:40:49;32.40;;;27.40;;
75171;SDS011;63750;52.418;20.742;2023-03-01T11:43:23;30.40;;;26.40;;
75171;SDS011;63750;52.418;20.742;2023-03-01T11:46:05;31.90;;;27.00;;
75171;SDS011;63750;52.418;20.742;2023-03-01T11:48:50;28.30;;;25.30;;
75171;SDS011;63750;52.418;20.742;2023-03-01T11:51:24;30.70;;;27.10;;
75171;SDS011;63750;52.418;20.742;2023-03-01T11:54:12;34.10;;;28.70;;
75171;SDS011;63750;52.418;20.742;2023-03-01T11:56:45;30.60;;;25.30;;
75171;SDS011;63750;52.418;20.742;2023-03-01T11:59:20;33.30;;;27.70;;
75171;SDS011;63750;52.418;20.742;2023-03-01T12:04:59;35.30;;;28.80;;
75171;SDS011;63750;52.418;20.742;2023-03-01T12:07:42;31.40;;;25.40;;
75171;SDS011;63750;52.418;20.742;2023-03-01T12:10:20;34.80;;;27.30;;
75171;SDS011;63750;52.418;20.742;2023-03-01T12:12:55;33.40;;;27.80;;
75171;SDS011;63750;52.418;20.742;2023-03-01T12:15:39;31.60;;;26.20;;
75171;SDS011;63750;52.418;20.742;2023-03-01T12:18:17;33.20;;;27.90;;
75171;SDS011;63750;52.418;20.742;2023-03-01T12:21:00;32.30;;;26.10;;
75171;SDS011;63750;52.418;20.742;2023-03-01T12:23:42;29.80;;;24.60;;
75171;SDS011;63750;52.418;20.742;2023-03-01T12:26:25;31.50;;;26.50;;
75171;SDS011;63750;52.418;20.742;2023-03-01T12:28:59;26.80;;;22.60;;
75171;SDS011;63750;52.418;20.742;2023-03-01T12:31:47;29.80;;;25.20;;
75171;SDS011;63750;52.418;20.742;2023-03-01T12:34:58;28.30;;;25.00;;
75171;SDS011;63750;52.418;20.742;2023-03-01T12:37:49;29.50;;;24.80;;
75171;SDS011;63750;52.418;20.742;2023-03-01T12:43:19;25.60;;;22.40;;
75171;SDS011;63750;52.418;20.742;2023-03-01T12:45:58;28.20;;;23.30;;
75171;SDS011;63750;52.418;20.742;2023-03-01T12:48:39;28.20;;;24.40;;
75171;SDS011;63750;52.418;20.742;2023-03-01T12:51:14;27.70;;;24.20;;
75171;SDS011;63750;52.418;20.742;2023-03-01T12:53:46;27.20;;;23.20;;
75171;SDS011;63750;52.418;20.742;2023-03-01T12:56:17;28.90;;;23.50;;
75171;SDS011;63750;52.418;20.742;2023-03-01T12:58:50;27.90;;;23.00;;
75171;SDS011;63750;52.418;20.742;2023-03-01T13:01:25;27.20;;;22.60;;
75171;SDS011;63750;52.418;20.742;2023-03-01T13:06:58;25.30;;;21.80;;
75171;SDS011;63750;52.418;20.742;2023-03-01T13:09:38;25.90;;;23.10;;
75171;SDS011;63750;52.418;20.742;2023-03-01T13:15:29;26.00;;;23.20;;
75171;SDS011;63750;52.418;20.742;2023-03-01T13:18:01;29.30;;;23.70;;
75171;SDS011;63750;52.418;20.742;2023-03-01T13:20:31;28.30;;;22.20;;
75171;SDS011;63750;52.418;20.742;2023-03-01T13:23:02;26.10;;;22.30;;
75171;SDS011;63750;52.418;20.742;2023-03-01T13:25:32;25.90;;;22.60;;
75171;SDS011;63750;52.418;20.742;2023-03-01T13:31:02;28.70;;;23.00;;
75171;SDS011;63750;52.418;20.742;2023-03-01T13:33:46;28.10;;;24.00;;
75171;SDS011;63750;52.418;20.742;2023-03-01T13:39:27;27.00;;;22.60;;
75171;SDS011;63750;52.418;20.742;2023-03-01T13:41:57;24.60;;;22.20;;
75171;SDS011;63750;52.418;20.742;2023-03-01T13:44:25;25.90;;;22.90;;
75171;SDS011;63750;52.418;20.742;2023-03-01T13:46:57;26.80;;;23.60;;
75171;SDS011;63750;52.418;20.742;2023-03-01T13:49:28;27.10;;;24.20;;
75171;SDS011;63750;52.418;20.742;2023-03-01T13:52:02;27.40;;;24.40;;
75171;SDS011;63750;52.418;20.742;2023-03-01T13:54:32;27.60;;;24.00;;
75171;SDS011;63750;52.418;20.742;2023-03-01T13:57:00;29.20;;;25.90;;
75171;SDS011;63750;52.418;20.742;2023-03-01T13:59:28;25.40;;;22.10;;
75171;SDS011;63750;52.418;20.742;2023-03-01T14:01:56;24.10;;;21.70;;
75171;SDS011;63750;52.418;20.742;2023-03-01T14:04:25;26.70;;;23.90;;
75171;SDS011;63750;52.418;20.742;2023-03-01T14:09:36;31.60;;;28.30;;
75171;SDS011;63750;52.418;20.742;2023-03-01T14:12:10;31.40;;;28.10;;
75171;SDS011;63750;52.418;20.742;2023-03-01T14:14:47;28.50;;;25.00;;
75171;SDS011;63750;52.418;20.742;2023-03-01T14:17:24;27.40;;;24.30;;
75171;SDS011;63750;52.418;20.742;2023-03-01T14:20:07;27.40;;;24.10;;
75171;SDS011;63750;52.418;20.742;2023-03-01T14:22:37;26.40;;;23.40;;
75171;SDS011;63750;52.418;20.742;2023-03-01T14:25:18;24.40;;;22.00;;
75171;SDS011;63750;52.418;20.742;2023-03-01T14:27:52;25.50;;;22.60;;
75171;SDS011;63750;52.418;20.742;2023-03-01T14:30:23;23.50;;;21.10;;
75171;SDS011;63750;52.418;20.742;2023-03-01T14:32:53;23.80;;;21.00;;
75171;SDS011;63750;52.418;20.742;2023-03-01T14:35:23;25.80;;;23.00;;
75171;SDS011;63750;52.418;20.742;2023-03-01T14:37:52;31.60;;;23.70;;
75171;SDS011;63750;52.418;20.742;2023-03-01T14:40:24;26.10;;;23.30;;
75171;SDS011;63750;52.418;20.742;2023-03-01T14:42:53;27.90;;;23.70;;
75171;SDS011;63750;52.418;20.742;2023-03-01T14:45:24;26.10;;;22.90;;
75171;SDS011;63750;52.418;20.742;2023-03-01T14:47:53;25.80;;;23.10;;
75171;SDS011;63750;52.418;20.742;2023-03-01T14:50:23;26.80;;;23.90;;